Time;durP1;ratioP1;P1;durP2;ratioP2;P2;SDS_P1;SDS_P2;PMS_P1;PMS_P2;Temp;Humidity;BMP_temperature;BMP_pressure;BME280_temperature;BME280_humidity;BME280_pressure;Samples;Min_cycle;Max_cycle;Signal;HPM_P1;HPM_P2
2023/01/26 00:01:11;;;;;;;;;;;;;;;3.64;55.58;101498.69;4989146;28;7161;-73
2023/01/26 00:03:37;;;;;;;;;;;;;;;3.62;55.88;101505.28;4972735;28;7162;-73
2023/01/26 00:06:05;;;;;;;;;;;;;;;3.58;56.00;101506.63;4987555;28;6792;-73
2023/01/26 00:08:38;;;;;;;;;;;;;;;3.59;56.10;101487.25;4985169;28;6971;-73
2023/01/26 00:11:05;;;;;;;;;;;;;;;3.55;55.35;101480.09;5006841;28;7007;-73
2023/01/26 00:13:32;;;;;;;;;;;;;;;3.51;56.01;101483.97;4974528;28;7202;-73
2023/01/26 00:15:58;;;;;;;;;;;;;;;3.48;56.34;101488.75;5002530;28;7413;-73
2023/01/26 00:18:23;;;;;;;;;;;;;;;3.47;56.38;101479.38;4987712;28;6907;-73
2023/01/26 00:20:56;;;;;;;;;;;;;;;3.44;56.06;101471.50;4988315;28;6963;-73
2023/01/26 00:23:22;;;;;;;;;;;;;;;3.45;56.35;101453.88;4986182;28;6812;-73
2023/01/26 00:25:48;;;;;;;;;;;;;;;3.45;55.97;101442.84;4974140;28;7261;-73
2023/01/26 00:28:13;;;;;;;;;;;;;;;3.42;55.49;101442.56;5006768;28;6780;-73
2023/01/26 00:30:39;;;;;;;;;;;;;;;3.39;56.01;101438.09;4989228;28;6788;-73
2023/01/26 00:33:04;;;;;;;;;;;;;;;3.34;56.52;101436.78;4971133;28;7240;-73
2023/01/26 00:35:30;;;;;;;;;;;;;;;3.28;56.19;101434.56;4986597;28;6848;-73
2023/01/26 00:37:56;;;;;;;;;;;;;;;3.25;56.78;101418.16;4989945;28;6957;-73
2023/01/26 00:40:21;;;;;;;;;;;;;;;3.22;56.17;101438.16;4990018;28;7216;-73
2023/01/26 00:42:47;;;;;;;;;;;;;;;3.21;56.28;101433.84;5005747;28;6768;-73
2023/01/26 00:45:13;;;;;;;;;;;;;;;3.19;56.83;101423.56;4988800;28;6795;-73
2023/01/26 00:47:38;;;;;;;;;;;;;;;3.21;56.35;101429.66;5005055;28;6929;-73
2023/01/26 00:50:05;;;;;;;;;;;;;;;3.21;57.12;101426.25;5003528;28;6967;-73
2023/01/26 00:52:31;;;;;;;;;;;;;;;3.23;56.38;101427.28;4978854;28;7043;-73
2023/01/26 00:54:56;;;;;;;;;;;;;;;3.23;56.63;101425.63;4987827;28;7852;-73
2023/01/26 00:57:22;;;;;;;;;;;;;;;3.25;57.44;101420.69;4987270;28;8233;-73
2023/01/26 00:59:47;;;;;;;;;;;;;;;3.25;55.96;101413.09;5004552;28;6947;-73
2023/01/26 01:02:13;;;;;;;;;;;;;;;3.24;57.25;101404.63;4986594;28;7053;-73
2023/01/26 01:04:39;;;;;;;;;;;;;;;3.24;57.17;101391.97;4987634;28;6779;-73
2023/01/26 01:07:04;;;;;;;;;;;;;;;3.26;57.33;101392.06;4985376;28;7174;-73
2023/01/26 01:09:30;;;;;;;;;;;;;;;3.26;57.48;101397.16;4991808;28;6776;-73
2023/01/26 01:11:57;;;;;;;;;;;;;;;3.24;56.74;101402.09;5003463;28;6836;-73
2023/01/26 01:14:22;;;;;;;;;;;;;;;3.24;57.01;101396.13;4999468;28;6788;-73
2023/01/26 01:16:48;;;;;;;;;;;;;;;3.22;57.23;101392.56;4987466;28;7175;-72
2023/01/26 01:19:16;;;;;;;;;;;;;;;3.21;57.12;101390.78;5001521;28;6987;-73
2023/01/26 01:21:42;;;;;;;;;;;;;;;3.21;57.33;101396.72;4986598;28;7173;-73
2023/01/26 01:24:08;;;;;;;;;;;;;;;3.21;56.50;101389.13;4984900;28;6792;-73
2023/01/26 01:26:34;;;;;;;;;;;;;;;3.18;56.38;101387.19;5003190;28;6804;-73
2023/01/26 01:28:59;;;;;;;;;;;;;;;3.17;56.78;101385.41;5003850;28;7055;-72
2023/01/26 01:31:28;;;;;;;;;;;;;;;3.17;57.53;101379.47;4988110;28;8097;-73
2023/01/26 01:33:55;;;;;;;;;;;;;;;3.18;56.94;101384.66;4970390;28;7003;-72
2023/01/26 01:36:21;;;;;;;;;;;;;;;3.21;57.59;101378.97;4988634;28;6804;-72
2023/01/26 01:38:47;;;;;;;;;;;;;;;3.24;57.14;101375.84;4984395;28;7042;-73
2023/01/26 01:41:17;;;;;;;;;;;;;;;3.27;57.09;101381.19;4977035;28;7223;-73
2023/01/26 01:43:44;;;;;;;;;;;;;;;3.30;58.13;101377.31;4985068;28;6990;-73
2023/01/26 01:46:26;;;;;;;;;;;;;;;3.34;56.76;101373.41;4987252;28;6832;-73
2023/01/26 01:49:00;;;;;;;;;;;;;;;3.39;57.07;101376.38;5001596;28;6799;-72
2023/01/26 01:51:29;;;;;;;;;;;;;;;3.41;56.70;101370.72;4986818;28;6808;-72
2023/01/26 01:54:04;;;;;;;;;;;;;;;3.43;57.11;101368.31;5003534;28;6784;-72
2023/01/26 01:56:34;;;;;;;;;;;;;;;3.44;56.99;101372.63;4988356;28;6867;-72
2023/01/26 01:59:03;;;;;;;;;;;;;;;3.44;57.08;101365.91;5005652;28;7282;-73
2023/01/26 02:01:29;;;;;;;;;;;;;;;3.45;56.78;101372.75;4986828;28;7041;-73
2023/01/26 02:04:00;;;;;;;;;;;;;;;3.45;57.75;101370.22;5002873;28;6866;-73
2023/01/26 02:06:47;;;;;;;;;;;;;;;3.46;56.93;101361.00;5000466;28;6812;-72
2023/01/26 02:10:17;;;;;;;;;;;;;;;3.45;57.86;101361.75;5000950;28;6815;-72
2023/01/26 02:12:06;;;;;;;;;;;;;;;3.45;57.01;101361.75;4988150;28;7441;-73
2023/01/26 02:14:33;;;;;;;;;;;;;;;3.48;57.61;101359.47;4983445;28;6958;-73
2023/01/26 02:16:58;;;;;;;;;;;;;;;3.50;57.88;101359.63;4983955;28;7028;-72
2023/01/26 02:20:03;;;;;;;;;;;;;;;3.56;57.98;101356.00;5001889;28;7000;-72
2023/01/26 02:23:02;;;;;;;;;;;;;;;3.60;57.58;101355.53;4958363;28;6970;-72
2023/01/26 02:25:53;;;;;;;;;;;;;;;3.65;57.71;101352.53;4997217;28;9098;-72
2023/01/26 02:28:26;;;;;;;;;;;;;;;3.70;56.92;101357.28;4987702;28;6808;-72
2023/01/26 02:30:54;;;;;;;;;;;;;;;3.73;56.95;101357.53;4985793;28;6804;-72
2023/01/26 02:33:26;;;;;;;;;;;;;;;3.77;57.44;101350.19;4991456;28;6847;-72
2023/01/26 02:35:51;;;;;;;;;;;;;;;3.77;56.87;101346.03;4987530;28;6796;-73
2023/01/26 02:38:22;;;;;;;;;;;;;;;3.78;57.20;101345.28;4991098;28;6976;-72
2023/01/26 02:40:58;;;;;;;;;;;;;;;3.79;57.11;101338.56;4991280;28;6804;-72
2023/01/26 02:43:27;;;;;;;;;;;;;;;3.78;57.19;101335.13;4972680;28;6893;-73
2023/01/26 02:45:54;;;;;;;;;;;;;;;3.77;57.29;101329.91;4990362;28;6856;-72
2023/01/26 02:51:05;;;;;;;;;;;;;;;3.74;56.51;101336.50;4987968;28;6800;-73
2023/01/26 02:53:32;;;;;;;;;;;;;;;3.72;57.36;101327.88;4990358;28;6800;-73
2023/01/26 02:55:57;;;;;;;;;;;;;;;3.75;57.55;101327.25;4987892;28;8362;-72
2023/01/26 02:58:23;;;;;;;;;;;;;;;3.77;57.50;101322.31;5002306;28;6776;-72
2023/01/26 03:00:49;;;;;;;;;;;;;;;3.80;56.46;101326.00;4988170;28;6779;-73
2023/01/26 03:03:21;;;;;;;;;;;;;;;3.82;56.37;101323.63;4985127;28;6824;-72
2023/01/26 03:05:47;;;;;;;;;;;;;;;3.84;57.17;101327.19;4973567;28;7233;-72
2023/01/26 03:08:13;;;;;;;;;;;;;;;3.85;56.59;101322.25;5001689;28;6787;-73
2023/01/26 03:10:39;;;;;;;;;;;;;;;3.86;56.77;101320.59;4985069;28;7205;-73
2023/01/26 03:13:04;;;;;;;;;;;;;;;3.87;56.23;101320.75;5003101;28;6783;-73
2023/01/26 03:15:42;;;;;;;;;;;;;;;3.89;56.29;101315.81;5004592;28;6836;-73
2023/01/26 03:29:16;;;;;;;;;;;;;;;3.86;57.06;101313.00;5009742;28;6804;-72
2023/01/26 03:31:42;;;;;;;;;;;;;;;3.88;56.64;101316.59;4990703;28;7074;-73
2023/01/26 03:34:07;;;;;;;;;;;;;;;3.90;56.83;101312.53;5007472;28;7051;-73
2023/01/26 03:36:33;;;;;;;;;;;;;;;3.91;56.59;101309.22;5005807;28;6925;-73
2023/01/26 03:38:58;;;;;;;;;;;;;;;3.92;57.04;101294.91;5005769;28;7308;-73
2023/01/26 03:57:51;;;;;;;;;;;;;;;3.95;57.53;101285.03;5002044;28;6812;-72
2023/01/26 04:00:17;;;;;;;;;;;;;;;3.96;56.87;101285.19;5003650;28;8160;-72
2023/01/26 04:08:23;;;;;;;;;;;;;;;4.00;56.35;101302.44;4991076;28;7054;-72
2023/01/26 04:10:50;;;;;;;;;;;;;;;4.04;56.80;101311.22;5005131;28;6820;-72
2023/01/26 04:21:33;;;;;;;;;;;;;;;4.07;56.19;101292.84;4991172;28;6816;-72
2023/01/26 04:24:01;;;;;;;;;;;;;;;4.10;56.64;101303.25;5003513;28;6780;-72
2023/01/26 04:26:33;;;;;;;;;;;;;;;4.12;56.97;101301.75;4984373;28;6960;-72
2023/01/26 04:29:08;;;;;;;;;;;;;;;4.15;57.10;101309.63;4988120;28;7010;-73
2023/01/26 04:31:34;;;;;;;;;;;;;;;4.16;57.22;101307.22;4987045;28;6955;-73
2023/01/26 04:34:02;;;;;;;;;;;;;;;4.16;56.82;101306.34;4974722;28;6784;-73
2023/01/26 04:36:28;;;;;;;;;;;;;;;4.20;57.40;101307.50;4978086;28;8208;-73
2023/01/26 04:38:54;;;;;;;;;;;;;;;4.22;56.54;101299.25;4982105;28;6996;-73
2023/01/26 04:41:20;;;;;;;;;;;;;;;4.23;57.26;101300.16;4978126;28;6788;-73
2023/01/26 04:43:46;;;;;;;;;;;;;;;4.24;56.87;101297.75;4996980;28;8152;-73
2023/01/26 04:46:12;;;;;;;;;;;;;;;4.25;57.12;101306.25;4998383;28;7803;-73
2023/01/26 04:48:38;;;;;;;;;;;;;;;4.24;56.01;101296.88;4979643;28;6784;-73
2023/01/26 04:51:08;;;;;;;;;;;;;;;4.24;56.23;101297.75;4996345;28;6772;-73
2023/01/26 04:53:34;;;;;;;;;;;;;;;4.24;56.45;101291.78;4984151;28;6880;-72
2023/01/26 04:56:00;;;;;;;;;;;;;;;4.27;56.90;101300.56;5000887;28;6935;-73
2023/01/26 04:58:26;;;;;;;;;;;;;;;4.29;56.89;101301.59;4997083;28;7003;-73
2023/01/26 05:00:54;;;;;;;;;;;;;;;4.32;56.79;101293.38;4978586;28;6799;-73
2023/01/26 05:03:21;;;;;;;;;;;;;;;4.34;56.84;101290.94;4981798;28;6937;-73
2023/01/26 05:05:53;;;;;;;;;;;;;;;4.34;57.20;101293.47;4999694;28;7217;-73
2023/01/26 05:08:21;;;;;;;;;;;;;;;4.34;56.05;101290.94;4982535;28;6800;-74
2023/01/26 05:10:47;;;;;;;;;;;;;;;4.34;56.51;101290.94;4982968;28;7256;-73
2023/01/26 05:13:13;;;;;;;;;;;;;;;4.35;56.34;101290.22;4963053;28;7318;-72
2023/01/26 05:15:39;;;;;;;;;;;;;;;4.35;56.45;101285.13;4982835;28;6788;-73
2023/01/26 05:18:06;;;;;;;;;;;;;;;4.33;56.12;101286.63;4968028;28;6860;-72
2023/01/26 05:20:32;;;;;;;;;;;;;;;4.30;56.49;101284.72;4987753;28;6788;-73
2023/01/26 05:22:58;;;;;;;;;;;;;;;4.27;56.43;101292.97;4987762;28;6776;-72
2023/01/26 05:25:23;;;;;;;;;;;;;;;4.25;56.02;101285.97;5000157;28;7369;-72
2023/01/26 05:27:49;;;;;;;;;;;;;;;4.23;56.50;101282.41;4961580;28;7217;-73
2023/01/26 05:30:15;;;;;;;;;;;;;;;4.21;56.57;101289.88;4984138;28;6787;-72
2023/01/26 05:32:41;;;;;;;;;;;;;;;4.19;56.48;101286.31;4984326;28;6775;-73
2023/01/26 05:35:08;;;;;;;;;;;;;;;4.20;57.32;101293.16;4990892;28;6784;-72
2023/01/26 05:37:33;;;;;;;;;;;;;;;4.25;57.37;101291.94;4965889;28;7509;-73
2023/01/26 05:39:59;;;;;;;;;;;;;;;4.25;56.64;101291.94;5003908;28;7154;-72
2023/01/26 05:42:26;;;;;;;;;;;;;;;4.26;56.97;101301.34;4965741;28;6863;-73
2023/01/26 05:44:52;;;;;;;;;;;;;;;4.26;57.13;101301.34;4980930;28;7923;-72
2023/01/26 05:47:18;;;;;;;;;;;;;;;4.28;57.25;101303.97;4980801;28;6866;-72
2023/01/26 05:49:44;;;;;;;;;;;;;;;4.30;56.97;101305.03;4986348;28;7381;-72
2023/01/26 05:52:16;;;;;;;;;;;;;;;4.33;57.00;101304.38;4999625;28;6776;-73
2023/01/26 05:54:42;;;;;;;;;;;;;;;4.30;56.89;101307.56;4972754;28;6808;-72
2023/01/26 05:57:08;;;;;;;;;;;;;;;4.31;56.83;101306.81;4982295;28;6776;-73
2023/01/26 05:59:34;;;;;;;;;;;;;;;4.30;56.86;101310.09;4992101;28;7150;-73
2023/01/26 06:02:00;;;;;;;;;;;;;;;4.31;57.04;101309.34;4987162;28;6944;-72
2023/01/26 06:04:27;;;;;;;;;;;;;;;4.34;57.40;101304.53;4989206;28;7342;-72
2023/01/26 06:06:53;;;;;;;;;;;;;;;4.34;56.79;101299.47;4978273;28;6784;-72
2023/01/26 06:09:19;;;;;;;;;;;;;;;4.34;56.75;101296.00;4989239;28;7346;-73
2023/01/26 06:11:45;;;;;;;;;;;;;;;4.36;56.88;101300.47;4983901;28;6764;-72
2023/01/26 06:14:11;;;;;;;;;;;;;;;4.35;56.78;101298.69;4968616;28;7228;-72
2023/01/26 06:16:37;;;;;;;;;;;;;;;4.36;56.66;101300.47;4985443;28;6859;-72
2023/01/26 06:19:03;;;;;;;;;;;;;;;4.36;57.43;101302.13;4989310;28;6779;-72
2023/01/26 06:21:30;;;;;;;;;;;;;;;4.35;56.60;101297.81;4978330;28;7015;-72
2023/01/26 06:23:55;;;;;;;;;;;;;;;4.37;56.96;101302.25;4985124;28;6792;-72
2023/01/26 06:26:23;;;;;;;;;;;;;;;4.37;56.94;101303.91;4983736;28;6979;-73
2023/01/26 06:28:49;;;;;;;;;;;;;;;4.39;57.05;101303.28;4973471;28;7285;-72
2023/01/26 06:31:15;;;;;;;;;;;;;;;4.43;56.94;101312.06;4986362;28;6780;-72
2023/01/26 06:33:41;;;;;;;;;;;;;;;4.46;56.62;101314.88;4978444;28;6832;-72
2023/01/26 06:36:11;;;;;;;;;;;;;;;4.48;56.96;101318.44;4986197;28;6958;-73
2023/01/26 06:38:37;;;;;;;;;;;;;;;4.46;57.00;101312.34;4977182;28;7227;-72
2023/01/26 06:41:06;;;;;;;;;;;;;;;4.48;56.89;101315.00;4986255;28;6810;-73
2023/01/26 06:43:34;;;;;;;;;;;;;;;4.47;57.46;101311.56;4995446;28;6796;-73
2023/01/26 06:46:02;;;;;;;;;;;;;;;4.45;56.83;101318.19;5003244;28;6792;-72
2023/01/26 06:48:31;;;;;;;;;;;;;;;4.46;56.83;101317.41;5001418;28;6820;-73
2023/01/26 06:51:42;;;;;;;;;;;;;;;4.48;57.69;101317.53;5003822;28;6807;-73
2023/01/26 06:54:10;;;;;;;;;;;;;;;4.45;57.38;101324.13;4989650;28;7193;-73
2023/01/26 06:56:35;;;;;;;;;;;;;;;4.47;57.72;101324.28;4985285;28;7000;-73
2023/01/26 06:59:01;;;;;;;;;;;;;;;4.48;57.69;101320.97;4986453;28;6780;-73
2023/01/26 07:01:35;;;;;;;;;;;;;;;4.49;56.81;101322.75;5002024;28;7782;-72
2023/01/26 07:04:01;;;;;;;;;;;;;;;4.49;57.55;101322.75;4982557;28;6819;-73
2023/01/26 07:06:27;;;;;;;;;;;;;;;4.49;57.13;101322.75;4981273;28;6978;-72
2023/01/26 07:08:52;;;;;;;;;;;;;;;4.49;57.37;101320.22;4986744;28;7110;-72
2023/01/26 07:11:19;;;;;;;;;;;;;;;4.52;57.14;101323.00;4977995;28;8996;-73
2023/01/26 07:13:45;;;;;;;;;;;;;;;4.53;57.94;101314.63;4983804;28;6788;-73
2023/01/26 07:16:13;;;;;;;;;;;;;;;4.58;57.33;101326.09;4995824;28;7162;-73
2023/01/26 07:18:40;;;;;;;;;;;;;;;4.63;56.96;101330.66;4987301;28;6966;-73
2023/01/26 07:21:14;;;;;;;;;;;;;;;4.68;57.32;101332.88;4990323;28;6969;-73
2023/01/26 07:23:40;;;;;;;;;;;;;;;4.70;56.78;101318.66;5004243;28;7046;-73
2023/01/26 07:26:06;;;;;;;;;;;;;;;4.70;57.44;101318.66;4971114;28;6786;-73
2023/01/26 07:28:33;;;;;;;;;;;;;;;4.71;57.34;101324.59;4986214;28;6780;-73
2023/01/26 07:31:00;;;;;;;;;;;;;;;4.71;56.84;101329.69;4995448;28;7268;-73
2023/01/26 07:33:28;;;;;;;;;;;;;;;4.70;57.37;101328.81;4992955;28;6791;-73
2023/01/26 07:35:55;;;;;;;;;;;;;;;4.70;57.29;101333.00;5006973;28;6796;-73
2023/01/26 07:38:22;;;;;;;;;;;;;;;4.70;57.07;101335.53;5005379;28;6800;-73
2023/01/26 07:40:49;;;;;;;;;;;;;;;4.72;56.91;101334.91;4986117;28;6958;-72
2023/01/26 07:43:15;;;;;;;;;;;;;;;4.74;56.85;101337.59;4989035;28;6839;-73
2023/01/26 07:45:45;;;;;;;;;;;;;;;4.77;57.02;101332.75;4999054;28;7338;-72
2023/01/26 07:48:11;;;;;;;;;;;;;;;4.80;57.06;101338.09;4994688;28;6811;-72
2023/01/26 07:50:37;;;;;;;;;;;;;;;4.82;57.59;101338.25;4984244;28;7408;-72
2023/01/26 07:53:02;;;;;;;;;;;;;;;4.84;56.87;101336.72;4975828;28;7833;-73
2023/01/26 07:55:28;;;;;;;;;;;;;;;4.84;56.97;101337.63;4998351;28;7138;-73
2023/01/26 07:57:53;;;;;;;;;;;;;;;4.85;57.28;101339.41;4994189;28;6987;-72
2023/01/26 08:00:19;;;;;;;;;;;;;;;4.85;57.16;101341.94;4991341;28;7003;-72
2023/01/26 08:02:50;;;;;;;;;;;;;;;4.85;56.88;101347.03;4983204;28;6768;-73
2023/01/26 08:05:15;;;;;;;;;;;;;;;4.84;56.76;101347.78;4989260;28;8537;-72
2023/01/26 08:07:41;;;;;;;;;;;;;;;4.87;56.79;101342.06;4981737;28;6776;-73
2023/01/26 08:10:09;;;;;;;;;;;;;;;4.91;57.14;101344.13;4997794;28;6952;-73
2023/01/26 08:12:36;;;;;;;;;;;;;;;4.95;56.69;101352.91;4986842;28;7115;-72
2023/01/26 08:15:02;;;;;;;;;;;;;;;4.96;57.29;101347.06;4999031;28;6804;-72
2023/01/26 08:17:29;;;;;;;;;;;;;;;4.97;56.95;101351.38;4988510;28;6840;-72
2023/01/26 08:19:54;;;;;;;;;;;;;;;4.99;57.33;101347.31;5005403;28;6848;-73
2023/01/26 08:22:20;;;;;;;;;;;;;;;5.01;56.88;101345.78;5003380;28;6846;-72
2023/01/26 08:24:46;;;;;;;;;;;;;;;5.04;57.02;101345.16;4987468;28;7137;-72
2023/01/26 08:27:11;;;;;;;;;;;;;;;5.05;57.35;101352.94;5002408;28;6784;-72
2023/01/26 08:29:37;;;;;;;;;;;;;;;5.04;56.87;101355.31;4983531;28;7325;-72
2023/01/26 08:32:03;;;;;;;;;;;;;;;5.03;56.58;101353.53;5004971;28;7087;-72
2023/01/26 08:34:28;;;;;;;;;;;;;;;5.03;57.48;101357.00;5004442;28;6784;-73
2023/01/26 08:36:54;;;;;;;;;;;;;;;5.03;57.10;101353.53;5007775;28;8187;-72
2023/01/26 08:39:20;;;;;;;;;;;;;;;5.03;56.87;101354.44;5004996;28;7175;-72
2023/01/26 08:41:46;;;;;;;;;;;;;;;5.06;56.87;101357.25;5003429;28;8198;-72
2023/01/26 08:44:12;;;;;;;;;;;;;;;5.07;57.53;101355.56;4985330;28;7222;-73
2023/01/26 08:46:37;;;;;;;;;;;;;;;5.07;57.24;101360.66;4975951;28;7010;-72
2023/01/26 08:49:03;;;;;;;;;;;;;;;5.07;57.55;101361.56;5003387;28;7272;-73
2023/01/26 08:51:29;;;;;;;;;;;;;;;5.09;56.83;101351.53;5003881;28;6768;-72
2023/01/26 08:53:54;;;;;;;;;;;;;;;5.10;57.36;101359.28;4986444;28;7189;-72
2023/01/26 08:56:21;;;;;;;;;;;;;;;5.13;57.45;101363.75;4986258;28;6914;-72
2023/01/26 08:58:47;;;;;;;;;;;;;;;5.16;57.42;101360.56;4975904;28;6922;-72
2023/01/26 09:01:15;;;;;;;;;;;;;;;5.18;56.99;101365.03;5004897;28;6784;-73
2023/01/26 09:03:43;;;;;;;;;;;;;;;5.21;57.18;101367.81;4995105;28;6987;-72
2023/01/26 09:06:12;;;;;;;;;;;;;;;5.25;56.98;101371.53;5003134;28;6800;-72
2023/01/26 09:08:38;;;;;;;;;;;;;;;5.26;57.56;101378.38;4996869;28;6864;-72
2023/01/26 09:11:08;;;;;;;;;;;;;;;5.27;56.82;101375.09;4999897;28;7078;-73
2023/01/26 09:13:34;;;;;;;;;;;;;;;5.25;57.14;101384.25;4976718;28;7423;-72
2023/01/26 09:16:04;;;;;;;;;;;;;;;5.25;57.21;101382.56;4981943;28;6804;-73
2023/01/26 09:18:30;;;;;;;;;;;;;;;5.24;57.47;101379.91;4984365;28;7106;-73
2023/01/26 09:21:06;;;;;;;;;;;;;;;5.25;56.73;101382.56;5000936;28;7820;-73
2023/01/26 09:23:34;;;;;;;;;;;;;;;5.25;57.52;101386.78;4985994;28;6999;-73
2023/01/26 09:26:00;;;;;;;;;;;;;;;5.26;57.07;101383.47;4997631;28;6812;-72
2023/01/26 09:28:26;;;;;;;;;;;;;;;5.25;57.56;101392.72;4976923;28;6796;-73
2023/01/26 09:30:52;;;;;;;;;;;;;;;5.27;57.01;101388.69;4972487;28;7148;-73
2023/01/26 09:33:17;;;;;;;;;;;;;;;5.31;57.45;101394.03;4982617;28;7151;-73
2023/01/26 09:35:43;;;;;;;;;;;;;;;5.34;57.31;101389.19;4995163;28;6955;-73
2023/01/26 09:38:08;;;;;;;;;;;;;;;5.38;57.56;101392.13;4999142;28;6859;-73
2023/01/26 09:41:03;;;;;;;;;;;;;;;5.45;57.07;101392.66;5000524;28;6990;-72
2023/01/26 09:43:58;;;;;;;;;;;;;;;5.46;57.08;101390.25;4988617;28;7270;-73
2023/01/26 09:46:53;;;;;;;;;;;;;;;5.46;57.41;101394.44;4987936;28;7885;-73
2023/01/26 09:49:47;;;;;;;;;;;;;;;5.48;57.13;101393.81;5000642;28;6828;-73
2023/01/26 09:52:51;;;;;;;;;;;;;;;5.51;57.36;101396.59;4985288;28;7261;-73
2023/01/26 09:55:20;;;;;;;;;;;;;;;5.54;57.59;101395.97;4986333;28;6820;-72
2023/01/26 09:58:01;;;;;;;;;;;;;;;5.55;57.20;101392.69;4984468;28;6812;-73
2023/01/26 10:00:40;;;;;;;;;;;;;;;5.54;57.49;101389.22;4991238;28;7031;-73
2023/01/26 10:03:45;;;;;;;;;;;;;;;5.54;57.20;101390.91;4984707;28;7176;-74
2023/01/26 10:06:27;;;;;;;;;;;;;;;5.55;57.47;101390.13;4980784;28;6990;-73
2023/01/26 10:09:04;;;;;;;;;;;;;;;5.61;57.69;101393.19;4984116;28;7023;-73
2023/01/26 10:11:47;;;;;;;;;;;;;;;5.68;57.94;101392.06;4993417;28;7252;-73
2023/01/26 10:14:25;;;;;;;;;;;;;;;5.74;57.93;101390.00;4988100;28;7374;-73
2023/01/26 10:16:52;;;;;;;;;;;;;;;5.80;57.58;101384.56;4990399;28;6819;-73
2023/01/26 10:19:38;;;;;;;;;;;;;;;5.89;57.59;101385.34;4996810;28;7234;-73
2023/01/26 10:22:18;;;;;;;;;;;;;;;5.98;58.14;101380.09;4973221;28;7010;-73
2023/01/26 10:24:49;;;;;;;;;;;;;;;6.06;57.38;101378.19;4986651;28;7143;-73
2023/01/26 10:27:15;;;;;;;;;;;;;;;6.09;57.47;101378.47;4990534;28;7287;-73
2023/01/26 10:29:41;;;;;;;;;;;;;;;6.11;57.72;101374.41;4982341;28;7688;-73
2023/01/26 10:32:15;;;;;;;;;;;;;;;6.13;57.58;101367.75;4980686;28;6776;-73
2023/01/26 10:34:42;;;;;;;;;;;;;;;6.13;56.75;101360.13;4986660;28;7291;-73
2023/01/26 10:37:28;;;;;;;;;;;;;;;6.14;56.78;101361.91;5002454;28;6971;-73
2023/01/26 10:40:06;;;;;;;;;;;;;;;6.14;57.10;101364.44;4973172;28;7136;-73
2023/01/26 10:42:35;;;;;;;;;;;;;;;6.14;57.60;101356.81;4985182;28;7279;-73
2023/01/26 10:45:21;;;;;;;;;;;;;;;6.20;57.45;101361.50;4978141;28;7201;-73
2023/01/26 10:48:03;;;;;;;;;;;;;;;6.27;57.24;101356.16;4991338;28;6812;-73
2023/01/26 10:50:30;;;;;;;;;;;;;;;6.32;57.30;101366.72;5000773;28;6942;-73
2023/01/26 10:53:03;;;;;;;;;;;;;;;6.36;57.20;101356.00;4986832;28;8630;-73
2023/01/26 10:55:32;;;;;;;;;;;;;;;6.39;57.26;101359.69;4981826;28;6866;-73
2023/01/26 10:57:58;;;;;;;;;;;;;;;6.42;57.36;101353.94;4984934;28;6804;-73
2023/01/26 11:00:33;;;;;;;;;;;;;;;6.42;56.95;101348.84;4984158;28;6899;-73
2023/01/26 11:03:11;;;;;;;;;;;;;;;6.38;56.63;101346.84;5002853;28;6860;-73
2023/01/26 11:05:36;;;;;;;;;;;;;;;6.34;57.04;101349.91;4998236;28;7821;-73
2023/01/26 11:08:05;;;;;;;;;;;;;;;6.32;56.71;101346.34;4988362;28;7033;-73
2023/01/26 11:10:35;;;;;;;;;;;;;;;6.31;57.22;101353.06;4981342;28;7829;-73
2023/01/26 11:13:19;;;;;;;;;;;;;;;6.32;57.00;101351.44;5002702;28;7014;-73
2023/01/26 11:15:49;;;;;;;;;;;;;;;6.31;57.11;101345.44;4979794;28;6934;-73
2023/01/26 11:18:34;;;;;;;;;;;;;;;6.31;57.00;101344.56;5001486;28;6816;-73
2023/01/26 11:21:32;;;;;;;;;;;;;;;6.30;56.98;101358.94;4995198;28;7224;-73
2023/01/26 11:24:26;;;;;;;;;;;;;;;6.24;56.83;101344.06;4979820;28;7900;-73
2023/01/26 11:27:24;;;;;;;;;;;;;;;6.16;56.94;101345.09;4984294;28;6875;-73
2023/01/26 11:30:15;;;;;;;;;;;;;;;6.14;57.16;101351.72;5004062;28;7222;-73
2023/01/26 11:33:34;;;;;;;;;;;;;;;6.16;57.27;101351.84;4987216;28;11419;-73
2023/01/26 11:36:47;;;;;;;;;;;;;;;6.16;57.37;101347.63;4979206;28;7084;-73
2023/01/26 11:40:08;;;;;;;;;;;;;;;6.19;57.32;101339.38;5002304;28;7612;-73
2023/01/26 11:43:50;;;;;;;;;;;;;;;6.18;57.03;101343.59;4933031;28;7067;-73
2023/01/26 11:46:57;;;;;;;;;;;;;;;6.20;57.27;101336.97;4927867;28;7056;-73
2023/01/26 11:49:47;;;;;;;;;;;;;;;6.20;57.35;101336.97;4916420;28;7526;-73
2023/01/26 11:53:04;;;;;;;;;;;;;;;6.21;57.71;101333.63;4981266;28;6813;-73
2023/01/26 11:56:17;;;;;;;;;;;;;;;6.24;57.59;101323.69;4964938;28;7287;-73
2023/01/26 11:59:10;;;;;;;;;;;;;;;6.26;57.57;101321.28;4973628;28;8554;-73
2023/01/26 12:01:57;;;;;;;;;;;;;;;6.28;57.35;101324.84;4969267;28;7074;-73
2023/01/26 12:04:23;;;;;;;;;;;;;;;6.30;57.53;101322.41;4979206;28;6807;-73
2023/01/26 12:07:05;;;;;;;;;;;;;;;6.32;57.44;101313.25;4981758;28;6791;-73
2023/01/26 12:09:42;;;;;;;;;;;;;;;6.32;57.80;101310.69;4991806;28;6823;-73
2023/01/26 12:12:15;;;;;;;;;;;;;;;6.32;57.77;101323.44;4989390;28;7140;-73
2023/01/26 12:14:56;;;;;;;;;;;;;;;6.32;57.31;101320.88;4982118;28;7042;-73
2023/01/26 12:18:08;;;;;;;;;;;;;;;6.30;57.32;101317.31;4981667;28;6799;-73
2023/01/26 12:20:52;;;;;;;;;;;;;;;6.26;57.52;101316.19;4990243;28;7058;-73
2023/01/26 12:23:33;;;;;;;;;;;;;;;6.29;57.49;101311.34;4983407;28;7190;-73
2023/01/26 12:26:10;;;;;;;;;;;;;;;6.33;57.14;101309.94;4981292;28;7219;-73
2023/01/26 12:29:17;;;;;;;;;;;;;;;6.35;57.46;101300.75;4978378;28;7096;-73
2023/01/26 12:32:04;;;;;;;;;;;;;;;6.34;57.46;101299.88;4995537;28;8417;-73
2023/01/26 12:34:32;;;;;;;;;;;;;;;6.35;57.61;101296.56;4989569;28;6800;-73
2023/01/26 12:37:33;;;;;;;;;;;;;;;6.37;57.40;101289.00;4963836;28;7146;-73
2023/01/26 12:40:30;;;;;;;;;;;;;;;6.38;57.77;101294.25;4976931;28;7008;-73
2023/01/26 12:43:40;;;;;;;;;;;;;;;6.36;57.49;101290.69;4978890;28;14189;-73
2023/01/26 12:46:09;;;;;;;;;;;;;;;6.35;57.86;101282.91;4986968;28;6832;-73
2023/01/26 12:48:52;;;;;;;;;;;;;;;6.34;57.66;101278.59;5000174;28;7024;-73
2023/01/26 12:51:30;;;;;;;;;;;;;;;6.35;58.20;101285.47;5000038;28;6816;-73
2023/01/26 12:54:06;;;;;;;;;;;;;;;6.36;57.61;101274.50;4983735;28;6832;-73
2023/01/26 12:56:45;;;;;;;;;;;;;;;6.37;57.82;101276.28;4985495;28;7306;-73
2023/01/26 12:59:35;;;;;;;;;;;;;;;6.38;57.85;101268.78;4976378;28;7786;-73
2023/01/26 13:02:30;;;;;;;;;;;;;;;6.42;58.30;101266.47;4983263;28;7050;-73
2023/01/26 13:05:00;;;;;;;;;;;;;;;6.46;58.03;101274.47;4991797;28;6792;-73
2023/01/26 13:07:36;;;;;;;;;;;;;;;6.49;58.13;101269.63;4987653;28;7145;-73
2023/01/26 13:10:19;;;;;;;;;;;;;;;6.52;57.94;101272.41;4997145;28;7204;-73
2023/01/26 13:13:28;;;;;;;;;;;;;;;6.52;57.79;101269.84;4999666;28;6823;-73
2023/01/26 13:16:29;;;;;;;;;;;;;;;6.49;58.02;101272.19;4920194;28;7064;-73
2023/01/26 13:18:57;;;;;;;;;;;;;;;6.47;57.94;101268.63;4997034;28;7358;-73
2023/01/26 13:21:27;;;;;;;;;;;;;;;6.45;58.16;101276.91;4987373;28;6780;-73
2023/01/26 13:23:54;;;;;;;;;;;;;;;6.45;57.86;101277.78;4991069;28;6961;-73
2023/01/26 13:26:40;;;;;;;;;;;;;;;6.45;58.46;101272.69;4993884;28;6788;-73
2023/01/26 13:29:24;;;;;;;;;;;;;;;6.47;58.07;101281.38;4998307;28;6812;-73
2023/01/26 13:31:51;;;;;;;;;;;;;;;6.45;58.08;101274.38;4996377;28;7469;-73
2023/01/26 13:34:25;;;;;;;;;;;;;;;6.45;58.42;101277.78;5003158;28;6948;-73
2023/01/26 13:37:02;;;;;;;;;;;;;;;6.43;58.10;101278.44;4997727;28;7197;-73
2023/01/26 13:39:33;;;;;;;;;;;;;;;6.42;58.41;101269.91;4982107;28;6804;-73
2023/01/26 13:41:59;;;;;;;;;;;;;;;6.40;58.12;101263.81;4983373;28;8090;-74
2023/01/26 13:44:46;;;;;;;;;;;;;;;6.41;58.25;101283.41;5000923;28;6850;-73
2023/01/26 13:47:23;;;;;;;;;;;;;;;6.37;58.14;101272.09;4979260;28;7245;-73
2023/01/26 13:49:49;;;;;;;;;;;;;;;6.34;58.21;101271.88;4986336;28;9874;-73
2023/01/26 13:52:22;;;;;;;;;;;;;;;6.33;58.36;101262.44;5002726;28;6979;-73
2023/01/26 13:54:53;;;;;;;;;;;;;;;6.33;58.71;101264.09;4988654;28;6945;-72
2023/01/26 13:57:25;;;;;;;;;;;;;;;6.35;58.50;101272.72;4981651;28;6807;-72
2023/01/26 13:59:59;;;;;;;;;;;;;;;6.38;58.56;101276.41;4984401;28;6796;-73
2023/01/26 14:02:30;;;;;;;;;;;;;;;6.39;58.42;101268.00;4997468;28;7479;-73
2023/01/26 14:04:57;;;;;;;;;;;;;;;6.43;58.65;101268.25;4985673;28;7383;-73
2023/01/26 14:07:36;;;;;;;;;;;;;;;6.45;58.88;101267.59;4976486;28;7092;-73
2023/01/26 14:10:04;;;;;;;;;;;;;;;6.50;58.99;101260.31;4999467;28;6807;-73